createdAt,value
2022-11-17T00:00:26.080Z,34.184000
2022-11-17T00:05:30.012Z,33.836000
2022-11-17T00:10:34.283Z,33.296000
2022-11-17T00:15:37.008Z,32.888000
2022-11-17T00:20:18.757Z,32.660000
2022-11-17T00:25:23.638Z,32.282857
2022-11-17T00:30:25.003Z,31.844000
2022-11-17T00:35:28.779Z,31.796000
2022-11-17T00:40:32.231Z,31.868000
2022-11-17T00:45:16.041Z,32.000000
2022-11-17T00:50:19.497Z,31.568000
2022-11-17T00:55:22.877Z,31.048571
2022-11-17T01:00:25.980Z,30.812000
2022-11-17T01:05:32.809Z,29.888000
2022-11-17T01:10:32.133Z,29.972000
2022-11-17T01:15:35.315Z,30.200000
2022-11-17T01:20:20.517Z,30.356000
2022-11-17T01:25:23.626Z,30.045714
2022-11-17T01:30:26.754Z,29.588000
2022-11-17T01:35:31.613Z,30.116000
2022-11-17T01:40:35.018Z,30.380000
2022-11-17T01:45:17.497Z,30.164000
2022-11-17T01:50:20.670Z,29.924000
2022-11-17T01:55:23.966Z,29.660000
2022-11-17T02:00:28.132Z,29.396000
2022-11-17T02:05:29.678Z,29.216000
2022-11-17T02:10:32.472Z,29.108000
2022-11-17T02:15:35.364Z,28.844000
2022-11-17T02:20:18.403Z,28.628000
2022-11-17T02:25:26.968Z,28.412000
2022-11-17T02:30:25.639Z,28.232857
2022-11-17T02:35:29.712Z,28.220000
2022-11-17T02:40:32.422Z,28.112000
2022-11-17T02:45:36.987Z,27.992000
2022-11-17T02:50:18.938Z,27.908000
2022-11-17T02:55:21.474Z,28.376000
2022-11-17T03:00:24.339Z,28.400000
2022-11-17T03:05:27.435Z,28.352000
2022-11-17T03:10:30.690Z,28.088000
2022-11-17T03:15:33.211Z,27.860000
2022-11-17T03:20:35.621Z,27.824000
2022-11-17T03:25:18.842Z,27.608000
2022-11-17T03:30:22.038Z,27.248000
2022-11-17T03:35:25.452Z,27.088571
2022-11-17T03:40:27.743Z,27.320000
2022-11-17T03:45:31.040Z,27.368000
2022-11-17T03:50:35.827Z,27.728000
2022-11-17T03:55:19.205Z,28.028000
2022-11-17T04:00:21.221Z,27.908000
2022-11-17T04:05:24.509Z,27.230000
2022-11-17T04:10:28.218Z,26.852000
2022-11-17T04:15:32.524Z,26.996000
2022-11-17T04:20:34.755Z,27.104000
2022-11-17T04:25:19.628Z,26.840000
2022-11-17T04:30:22.102Z,26.540000
2022-11-17T04:35:25.409Z,26.330000
2022-11-17T04:40:28.824Z,26.240000
2022-11-17T04:45:31.802Z,26.324000
2022-11-17T04:50:17.226Z,26.444000
2022-11-17T04:55:20.858Z,26.492000
2022-11-17T05:00:24.459Z,26.792857
2022-11-17T05:05:28.687Z,26.732000
2022-11-17T05:10:32.591Z,26.732000
2022-11-17T05:15:36.634Z,26.600000
2022-11-17T05:20:18.817Z,26.036000
2022-11-17T05:25:23.689Z,26.137143
2022-11-17T05:30:25.709Z,26.240000
2022-11-17T05:35:30.323Z,26.408000
2022-11-17T05:40:34.574Z,26.060000
2022-11-17T05:45:18.232Z,25.700000
2022-11-17T05:50:22.512Z,25.544000
2022-11-17T05:55:25.233Z,24.941429
2022-11-17T06:00:28.655Z,25.448000
2022-11-17T06:05:32.627Z,25.544000
2022-11-17T06:10:16.935Z,25.844000
2022-11-17T06:15:21.122Z,25.880000
2022-11-17T06:20:24.951Z,25.880000
2022-11-17T06:25:29.409Z,25.796000
2022-11-17T06:30:32.356Z,25.364000
2022-11-17T06:35:16.689Z,25.160000
2022-11-17T06:40:20.315Z,25.160000
2022-11-17T06:45:26.378Z,25.108571
2022-11-17T06:50:28.006Z,24.536000
2022-11-17T06:55:32.010Z,24.620000
2022-11-17T07:00:16.873Z,24.908000
2022-11-17T07:05:19.479Z,24.908000
2022-11-17T07:10:22.897Z,24.671429
2022-11-17T07:15:27.770Z,24.560000
2022-11-17T07:20:31.940Z,24.260000
2022-11-17T07:25:34.965Z,24.260000
2022-11-17T07:30:17.808Z,24.260000
2022-11-17T07:35:21.406Z,24.308000
2022-11-17T07:40:24.359Z,24.285714
2022-11-17T07:45:31.772Z,24.356000
2022-11-17T07:50:29.584Z,24.152000
2022-11-17T07:55:32.990Z,23.792000
2022-11-17T08:00:18.293Z,23.720000
2022-11-17T08:05:20.438Z,23.720000
2022-11-17T08:10:24.436Z,23.720000
2022-11-17T08:15:28.962Z,23.720000
2022-11-17T08:20:31.899Z,23.648000
2022-11-17T08:25:35.214Z,23.924000
2022-11-17T08:30:18.596Z,24.032000
2022-11-17T08:35:22.476Z,23.771429
2022-11-17T08:40:25.763Z,23.108000
2022-11-17T08:45:29.983Z,23.180000
2022-11-17T08:50:33.175Z,23.228000
2022-11-17T08:55:16.197Z,23.228000
2022-11-17T09:00:19.753Z,22.964000
2022-11-17T09:05:22.688Z,22.691429
2022-11-17T09:10:26.225Z,22.388000
2022-11-17T09:15:30.332Z,22.184000
2022-11-17T09:20:40.230Z,22.412000
2022-11-17T09:25:18.150Z,22.508000
2022-11-17T09:30:21.294Z,23.102857
2022-11-17T09:35:25.042Z,23.180000
2022-11-17T09:40:33.232Z,23.180000
2022-11-17T09:45:32.166Z,23.120000
2022-11-17T09:50:36.512Z,22.952000
2022-11-17T09:55:17.736Z,22.820000
2022-11-17T10:00:21.118Z,22.736000
2022-11-17T10:05:24.856Z,22.987143
2022-11-17T10:10:29.174Z,22.712000
2022-11-17T10:15:33.992Z,22.460000
2022-11-17T10:20:16.446Z,22.280000
2022-11-17T10:25:19.684Z,22.472000
2022-11-17T10:30:22.176Z,22.868000
2022-11-17T10:35:25.313Z,23.115714
2022-11-17T10:40:28.112Z,23.180000
2022-11-17T10:45:31.403Z,23.264000
2022-11-17T10:50:36.147Z,23.360000
2022-11-17T10:55:18.776Z,23.192000
2022-11-17T11:00:35.263Z,23.012857
2022-11-17T11:05:25.255Z,23.012000
2022-11-17T11:10:28.415Z,23.240000
2022-11-17T11:15:31.755Z,23.420000
2022-11-17T11:20:35.843Z,23.384000
2022-11-17T11:25:19.725Z,23.468000
2022-11-17T11:30:23.789Z,23.231429
2022-11-17T11:35:26.053Z,23.108000
2022-11-17T11:40:29.017Z,23.180000
2022-11-17T11:45:32.842Z,22.988000
2022-11-17T11:50:15.921Z,22.544000
2022-11-17T11:55:19.487Z,22.604000
2022-11-17T12:00:23.308Z,22.460000
2022-11-17T12:05:26.874Z,22.556000
2022-11-17T12:10:31.452Z,22.496000
2022-11-17T12:15:34.165Z,22.304000
2022-11-17T12:20:16.911Z,21.572000
2022-11-17T12:25:19.625Z,21.008000
2022-11-17T12:30:24.097Z,20.762857
2022-11-17T12:35:28.352Z,20.972000
2022-11-17T12:40:31.595Z,20.504000
2022-11-17T12:45:40.612Z,20.144000
2022-11-17T12:50:18.223Z,19.412000
2022-11-17T12:55:22.434Z,20.120000
2022-11-17T13:00:27.280Z,19.940000
2022-11-17T13:05:30.373Z,20.192000
2022-11-17T13:10:36.271Z,20.756000
2022-11-17T13:15:18.943Z,20.960000
2022-11-17T13:20:22.155Z,20.648000
2022-11-17T13:25:24.782Z,20.222857
2022-11-17T13:30:42.538Z,19.976000
2022-11-17T13:35:33.028Z,19.904000
2022-11-17T13:40:35.559Z,19.868000
2022-11-17T13:45:19.284Z,19.988000
2022-11-17T13:50:22.507Z,20.197143
2022-11-17T13:55:26.717Z,20.444000
2022-11-17T14:00:30.853Z,20.684000
2022-11-17T14:05:34.698Z,20.732000
2022-11-17T14:10:16.594Z,20.744000
2022-11-17T14:15:21.600Z,20.504000
2022-11-17T14:20:23.247Z,20.827143
2022-11-17T14:25:26.901Z,20.744000
2022-11-17T14:30:29.411Z,20.900000
2022-11-17T14:35:32.904Z,21.020000
2022-11-17T14:40:35.939Z,20.888000
2022-11-17T14:45:19.526Z,20.792000
2022-11-17T14:50:23.163Z,21.097143
2022-11-17T14:55:25.758Z,21.296000
2022-11-17T15:00:28.785Z,21.608000
2022-11-17T15:05:31.918Z,22.052000
2022-11-17T15:10:35.835Z,22.556000
2022-11-17T15:15:19.030Z,23.636000
2022-11-17T15:20:23.448Z,25.250000
2022-11-17T15:25:26.611Z,25.880000
2022-11-17T15:30:29.903Z,26.204000
2022-11-17T15:35:33.329Z,27.440000
2022-11-17T15:40:19.397Z,28.472000
2022-11-17T15:45:19.876Z,29.396000
2022-11-17T15:50:24.162Z,29.480000
2022-11-17T15:55:27.592Z,29.012000
2022-11-17T16:00:31.045Z,29.048000
2022-11-17T16:05:35.218Z,29.492000
2022-11-17T16:10:19.181Z,30.620000
2022-11-17T16:15:22.725Z,31.436000
2022-11-17T16:20:26.310Z,31.910000
2022-11-17T16:25:29.414Z,31.448000
2022-11-17T16:30:35.567Z,31.376000
2022-11-17T16:35:34.701Z,31.052000
2022-11-17T16:40:18.592Z,31.532000
2022-11-17T16:45:23.540Z,31.460000
2022-11-17T16:50:26.696Z,31.688000
2022-11-17T16:55:30.826Z,33.476000
2022-11-17T17:00:34.183Z,34.100000
2022-11-17T17:05:17.060Z,34.616000
2022-11-17T17:10:21.553Z,34.700000
2022-11-17T17:15:24.535Z,34.237143
2022-11-17T17:20:29.719Z,33.536000
2022-11-17T17:25:30.279Z,33.332000
2022-11-17T17:30:33.255Z,33.356000
2022-11-17T17:35:17.930Z,33.812000
2022-11-17T17:40:20.082Z,33.716000
2022-11-17T17:45:23.574Z,33.015714
2022-11-17T17:50:26.518Z,33.752000
2022-11-17T17:55:30.301Z,34.004000
2022-11-17T18:00:33.577Z,34.520000
2022-11-17T18:05:16.021Z,34.928000
2022-11-17T18:10:19.154Z,35.300000
2022-11-17T18:15:21.851Z,35.492000
2022-11-17T18:20:27.787Z,35.124286
2022-11-17T18:25:29.691Z,35.444000
2022-11-17T18:30:33.071Z,35.984000
2022-11-17T18:35:17.254Z,35.876000
2022-11-17T18:40:19.686Z,36.668000
2022-11-17T18:45:23.676Z,36.332857
2022-11-17T18:50:26.610Z,36.776000
2022-11-17T18:55:29.862Z,36.584000
2022-11-17T19:00:32.893Z,36.548000
2022-11-17T19:05:16.185Z,36.044000
2022-11-17T19:10:21.282Z,36.344000
2022-11-17T19:15:23.945Z,36.705714
2022-11-17T19:20:26.650Z,36.596000
2022-11-17T19:25:29.483Z,37.004000
2022-11-17T19:30:46.481Z,37.040000
2022-11-17T19:35:37.167Z,36.752000
2022-11-17T19:40:19.604Z,36.992000
2022-11-17T19:45:22.698Z,37.734286
2022-11-17T19:50:25.869Z,37.472000
2022-11-17T19:55:28.536Z,38.348000
2022-11-17T20:00:31.810Z,39.056000
2022-11-17T20:05:34.542Z,38.948000
2022-11-17T20:10:17.193Z,39.440000
2022-11-17T20:15:33.836Z,38.624000
2022-11-17T20:20:24.780Z,39.058571
2022-11-17T20:25:26.646Z,39.812000
2022-11-17T20:30:30.097Z,40.916000
2022-11-17T20:35:33.253Z,41.144000
2022-11-17T20:40:16.416Z,40.400000
2022-11-17T20:45:19.646Z,40.412000
2022-11-17T20:50:22.542Z,40.241429
2022-11-17T20:55:25.677Z,39.644000
2022-11-17T21:00:29.987Z,40.268000
2022-11-17T21:05:32.625Z,40.940000
2022-11-17T21:10:34.986Z,40.856000
2022-11-17T21:15:17.736Z,41.708000
2022-11-17T21:20:20.909Z,41.240000
2022-11-17T21:25:24.562Z,40.987143
2022-11-17T21:30:28.619Z,41.420000
2022-11-17T21:35:32.565Z,41.480000
2022-11-17T21:40:35.189Z,43.004000
2022-11-17T21:45:17.613Z,42.620000
2022-11-17T21:50:20.770Z,42.140000
2022-11-17T21:55:23.483Z,41.861429
2022-11-17T22:00:25.884Z,43.616000
2022-11-17T22:05:29.000Z,42.596000
2022-11-17T22:10:32.457Z,42.212000
2022-11-17T22:15:15.950Z,41.696000
2022-11-17T22:20:18.708Z,42.032000
2022-11-17T22:25:44.198Z,42.080000
2022-11-17T22:30:26.550Z,41.540000
2022-11-17T22:35:29.810Z,40.808000
2022-11-17T22:40:34.280Z,41.816000
2022-11-17T22:45:16.911Z,41.360000
2022-11-17T22:50:20.074Z,41.300000
2022-11-17T22:55:23.806Z,41.565714
2022-11-17T23:00:27.315Z,41.516000
2022-11-17T23:05:30.433Z,41.876000
2022-11-17T23:10:34.264Z,41.972000
2022-11-17T23:15:15.996Z,41.252000
2022-11-17T23:20:20.305Z,39.944000
2022-11-17T23:25:23.675Z,38.827143
2022-11-17T23:30:27.111Z,37.940000
2022-11-17T23:35:31.367Z,37.460000
2022-11-17T23:40:16.929Z,37.076000
2022-11-17T23:45:19.763Z,36.380000
2022-11-17T23:50:22.599Z,35.870000
2022-11-17T23:55:25.488Z,35.696000
